Aérodrome :
LOGIN :

S'inscrire | Disclaimer

   EN    FR    IT 

 










Légende :    VFR   VFR Marginal   IFR   IFR Intensif   IFR Très Intensif
Visi : 
Plafond : 
>= 8 km
>= 3000ft
5 à 8 km
1000 à 3000 ft
1500m à 5 km
500 à 1000 ft
800 à 1500m
200 à 500 ft
< 800m
< 200 ft
Symboles :   Orages  Brouillard  Fortes neiges  Fortes précipitations  Vent > 20 kt
SIGMETs :   Divers  Orages  Givrage  Turbulence  Onde Orograph.  Cendres Volcan.






- Altitude de l'aérodrome : 1299 ft


EDTY - Adolf Würth

DERNIER METAR :
  • 211020Z 31007KT CAVOK 25/18 Q1010

METARs EXPIRÉS :
  • 210950Z 30008KT 270V330 CAVOK 25/19 Q1010
  • 210920Z 25007KT 9999 FEW029 25/17 Q1010
  • 210850Z 25005KT 200V290 CAVOK 26/19 Q1010
  • 210820Z 26005KT 210V310 CAVOK 24/18 Q1010
  • 210750Z 22005KT 180V270 CAVOK 23/18 Q1009
  • 210720Z 22005KT 190V260 CAVOK 23/18 Q1009
  • 210650Z VRB01KT CAVOK 23/17 Q1009
  • 210620Z 21003KT 170V240 CAVOK 22/18 Q1009

TAF TAF EDTY
Valide du 21 à 09h jusqu'au 21 à 18h UTC


210800Z 2109/2118 22005KT CAVOK
PROB30
TEMPO 2113/2118 24020G35KT 4000 TSRA BKN050CB



MET'MAP, la Météo Aéronautique d'un coup d'oeil ! - Copyright ORBIFLY Décembre 2007 - Disclaimer

ORBIFLY MET'MAP TEAM :

Programmation & Développement : Alexandra Zaïnal
Sur une idée originale de : Baudouin d'Aumeries
Soutien technique & logistique : Manuel Goepfert
Assistance : Marc-Olivier Méhu




SOURCES & CREDITS :

   NOAA